CA-0398 weather

CLOSED Vanscoy Airport
Saskatchewan, Canada

Public forecast

Using degrees Celsius for public forecast. Weather courtesy of forecast.io.

METAR (pilot weather report)

Closest report is Saskatoon John G. Diefenbaker International Airport, 15.4 nm (28.5 km) NE. Retrieved 2019/05/19 13:00 UTC (50 minutes ago):

CYXE 191300Z 11005KT 15SM SKC 06/M02 A3026 RMK SLP265

TAF (pilot weather forecast)

Closest forecast is Saskatoon John G. Diefenbaker International Airport, 15.4 nm (28.5 km) NE. Retrieved 2019/05/19 12:42 UTC (1 hour ago):

TAF CYXE 191138Z 1912/2012 12005KT P6SM SKC BECMG 1917/1919 10012KT BECMG 2003/2005 11006KT RMK NXT FCST BY 191800Z